createdAt,value
2022-11-20T00:02:26.359Z,96391.44
2022-11-20T00:05:13.853Z,96395.34
2022-11-20T00:07:42.199Z,96392.75
2022-11-20T00:10:14.586Z,96399.19
2022-11-20T00:12:46.091Z,96415.16
2022-11-20T00:15:14.159Z,96409.44
2022-11-20T00:17:42.016Z,96406.69
2022-11-20T00:20:12.680Z,96409.41
2022-11-20T00:22:40.048Z,96410.31
2022-11-20T00:25:11.230Z,96413.75
2022-11-20T00:27:45.421Z,96410.22
2022-11-20T00:30:22.041Z,96416.66
2022-11-20T00:32:49.156Z,96414.34
2022-11-20T00:35:17.475Z,96429.53
2022-11-20T00:37:45.155Z,96426.84
2022-11-20T00:40:20.269Z,96420.19
2022-11-20T00:42:49.813Z,96419.22
2022-11-20T00:45:20.274Z,96423.91
2022-11-20T00:47:48.178Z,96418.00
2022-11-20T00:50:19.229Z,96416.97
2022-11-20T00:52:49.447Z,96428.19
2022-11-20T00:55:22.380Z,96428.78
2022-11-20T00:57:50.429Z,96431.22
2022-11-20T01:00:19.513Z,96435.63
2022-11-20T01:02:53.675Z,96438.06
2022-11-20T01:05:21.139Z,96438.19
2022-11-20T01:07:49.652Z,96444.88
2022-11-20T01:10:22.678Z,96445.81
2022-11-20T01:13:20.233Z,96445.09
2022-11-20T01:15:57.585Z,96449.78
2022-11-20T01:18:27.999Z,96454.84
2022-11-20T01:21:01.127Z,96456.72
2022-11-20T01:23:35.596Z,96469.75
2022-11-20T01:26:12.819Z,96476.50
2022-11-20T01:28:45.558Z,96470.41
2022-11-20T01:31:33.705Z,96471.84
2022-11-20T01:34:09.962Z,96470.03
2022-11-20T01:36:43.500Z,96479.91
2022-11-20T01:39:22.885Z,96481.22
2022-11-20T01:42:21.225Z,96486.69
2022-11-20T01:45:04.517Z,96498.25
2022-11-20T01:47:44.052Z,96494.47
2022-11-20T01:50:39.463Z,96494.25
2022-11-20T01:53:18.429Z,96486.09
2022-11-20T01:56:01.404Z,96499.28
2022-11-20T01:58:39.467Z,96494.38
2022-11-20T02:01:08.600Z,96490.34
2022-11-20T02:03:42.713Z,96498.72
2022-11-20T02:06:38.770Z,96503.78
2022-11-20T02:09:07.945Z,96511.72
2022-11-20T02:11:37.486Z,96499.69
2022-11-20T02:14:05.858Z,96489.63
2022-11-20T02:16:40.794Z,96487.19
2022-11-20T02:19:25.191Z,96480.00
2022-11-20T02:22:32.063Z,96473.63
2022-11-20T02:25:12.257Z,96477.66
2022-11-20T02:27:42.165Z,96477.69
2022-11-20T02:30:18.054Z,96477.84
2022-11-20T02:32:46.904Z,96466.50
2022-11-20T02:35:23.191Z,96459.97
2022-11-20T02:37:56.806Z,96470.06
2022-11-20T02:40:25.222Z,96466.88
2022-11-20T02:42:59.395Z,96459.84
2022-11-20T02:45:29.429Z,96454.47
2022-11-20T02:48:01.087Z,96443.50
2022-11-20T02:50:38.879Z,96437.81
2022-11-20T02:53:06.900Z,96441.88
2022-11-20T02:55:38.130Z,96453.78
2022-11-20T02:58:11.787Z,96458.34
2022-11-20T03:00:45.926Z,96460.84
2022-11-20T03:03:20.328Z,96472.94
2022-11-20T03:05:54.093Z,96490.28
2022-11-20T03:08:26.170Z,96494.47
2022-11-20T03:10:58.633Z,96486.06
2022-11-20T03:13:29.258Z,96487.03
2022-11-20T03:16:02.667Z,96485.16
2022-11-20T03:18:36.729Z,96478.22
2022-11-20T03:21:04.394Z,96471.94
2022-11-20T03:23:39.079Z,96487.88
2022-11-20T03:26:25.649Z,96491.88
2022-11-20T03:28:58.543Z,96485.38
2022-11-20T03:31:48.522Z,96478.94
2022-11-20T03:34:21.901Z,96478.50
2022-11-20T03:36:52.524Z,96465.13
2022-11-20T03:39:21.525Z,96463.22
2022-11-20T03:41:51.464Z,96460.84
2022-11-20T03:44:23.417Z,96477.81
2022-11-20T03:46:51.493Z,96475.38
2022-11-20T03:49:20.455Z,96476.84
2022-11-20T03:51:48.994Z,96469.63
2022-11-20T03:54:23.320Z,96470.22
2022-11-20T03:56:54.397Z,96463.38
2022-11-20T03:59:23.552Z,96451.72
2022-11-20T04:02:06.337Z,96449.28
2022-11-20T04:04:33.535Z,96455.59
2022-11-20T04:07:04.567Z,96458.16
2022-11-20T04:09:38.789Z,96459.97
2022-11-20T04:12:13.758Z,96442.28
2022-11-20T04:14:46.191Z,96446.53
2022-11-20T04:17:20.173Z,96440.28
2022-11-20T04:19:52.497Z,96431.34
2022-11-20T04:22:20.322Z,96432.97
2022-11-20T04:24:47.832Z,96438.94
2022-11-20T04:27:27.151Z,96441.03
2022-11-20T04:29:57.846Z,96449.53
2022-11-20T04:32:27.224Z,96454.41
2022-11-20T04:35:07.600Z,96464.81
2022-11-20T04:37:35.758Z,96453.38
2022-11-20T04:40:04.546Z,96451.88
2022-11-20T04:42:35.288Z,96450.94
2022-11-20T04:45:03.813Z,96447.22
2022-11-20T04:47:41.015Z,96461.25
2022-11-20T04:50:09.276Z,96466.09
2022-11-20T04:52:36.896Z,96465.53
2022-11-20T04:55:10.929Z,96466.59
2022-11-20T04:57:37.951Z,96458.38
2022-11-20T05:00:10.121Z,96450.09
2022-11-20T05:02:37.955Z,96449.47
2022-11-20T05:05:09.586Z,96457.19
2022-11-20T05:07:38.668Z,96457.41
2022-11-20T05:10:06.772Z,96456.59
2022-11-20T05:12:36.110Z,96469.91
2022-11-20T05:15:11.155Z,96473.28
2022-11-20T05:17:41.156Z,96478.78
2022-11-20T05:20:10.909Z,96476.03
2022-11-20T05:22:44.058Z,96491.53
2022-11-20T05:25:16.117Z,96508.63
2022-11-20T05:27:46.265Z,96508.59
2022-11-20T05:30:15.338Z,96508.88
2022-11-20T05:32:43.963Z,96503.44
2022-11-20T05:35:12.505Z,96508.16
2022-11-20T05:37:48.557Z,96515.56
2022-11-20T05:40:22.807Z,96520.19
2022-11-20T05:42:49.859Z,96525.50
2022-11-20T05:45:22.546Z,96530.25
2022-11-20T05:47:57.265Z,96528.81
2022-11-20T05:50:24.927Z,96527.66
2022-11-20T05:52:54.177Z,96524.81
2022-11-20T05:55:26.298Z,96517.81
2022-11-20T05:57:56.944Z,96518.81
2022-11-20T06:00:24.837Z,96515.00
2022-11-20T06:03:01.969Z,96511.28
2022-11-20T06:05:29.171Z,96510.09
2022-11-20T06:07:58.911Z,96510.22
2022-11-20T06:10:26.472Z,96522.59
2022-11-20T06:12:59.843Z,96512.34
2022-11-20T06:15:31.320Z,96512.38
2022-11-20T06:18:04.427Z,96516.72
2022-11-20T06:20:36.685Z,96522.06
2022-11-20T06:23:09.187Z,96522.06
2022-11-20T06:25:44.850Z,96526.78
2022-11-20T06:28:13.145Z,96534.56
2022-11-20T06:30:47.760Z,96539.53
2022-11-20T06:33:19.470Z,96538.88
2022-11-20T06:35:46.758Z,96536.44
2022-11-20T06:38:15.960Z,96541.00
2022-11-20T06:40:46.975Z,96540.81
2022-11-20T06:43:17.812Z,96542.88
2022-11-20T06:45:47.753Z,96538.66
2022-11-20T06:48:15.286Z,96547.97
2022-11-20T06:50:42.347Z,96551.78
2022-11-20T06:53:11.607Z,96546.03
2022-11-20T06:55:46.468Z,96555.28
2022-11-20T06:58:16.652Z,96548.44
2022-11-20T07:00:45.440Z,96557.31
2022-11-20T07:03:16.709Z,96563.34
2022-11-20T07:05:50.926Z,96561.47
2022-11-20T07:08:19.499Z,96559.91
2022-11-20T07:10:56.948Z,96566.13
2022-11-20T07:13:26.942Z,96565.84
2022-11-20T07:16:01.669Z,96573.63
2022-11-20T07:18:32.330Z,96581.66
2022-11-20T07:21:10.611Z,96584.50
2022-11-20T07:23:44.448Z,96580.72
2022-11-20T07:26:16.315Z,96576.81
2022-11-20T07:28:50.893Z,96579.28
2022-11-20T07:31:28.412Z,96587.28
2022-11-20T07:33:59.402Z,96592.34
2022-11-20T07:36:34.340Z,96596.22
2022-11-20T07:39:05.563Z,96597.38
2022-11-20T07:41:45.064Z,96602.66
2022-11-20T07:44:14.939Z,96593.50
2022-11-20T07:46:46.385Z,96593.34
2022-11-20T07:49:26.045Z,96598.16
2022-11-20T07:52:00.477Z,96603.53
2022-11-20T07:54:36.929Z,96598.81
2022-11-20T07:57:10.780Z,96596.44
2022-11-20T07:59:38.031Z,96598.69
2022-11-20T08:02:05.640Z,96601.84
2022-11-20T08:04:42.130Z,96595.88
2022-11-20T08:07:18.444Z,96597.81
2022-11-20T08:09:48.687Z,96592.19
2022-11-20T08:12:42.583Z,96597.84
2022-11-20T08:15:18.961Z,96603.31
2022-11-20T08:18:28.966Z,96598.72
2022-11-20T08:20:56.839Z,96601.69
2022-11-20T08:23:34.816Z,96608.22
2022-11-20T08:26:05.193Z,96597.66
2022-11-20T08:28:34.006Z,96600.75
2022-11-20T08:31:09.425Z,96616.13
2022-11-20T08:33:41.568Z,96614.69
2022-11-20T08:36:13.891Z,96610.78
2022-11-20T08:39:13.590Z,96618.41
2022-11-20T08:41:52.414Z,96618.81
2022-11-20T08:44:23.770Z,96621.75
2022-11-20T08:46:52.873Z,96627.44
2022-11-20T08:49:21.127Z,96627.94
2022-11-20T08:52:05.412Z,96636.38
2022-11-20T08:54:36.814Z,96620.94
2022-11-20T08:57:26.754Z,96624.44
2022-11-20T09:00:06.371Z,96624.38
2022-11-20T09:02:36.320Z,96623.19
2022-11-20T09:05:09.879Z,96621.25
2022-11-20T09:07:44.216Z,96610.13
2022-11-20T09:10:24.678Z,96618.97
2022-11-20T09:12:55.704Z,96632.22
2022-11-20T09:15:40.428Z,96624.94
2022-11-20T09:18:15.073Z,96632.63
2022-11-20T09:20:44.178Z,96636.84
2022-11-20T09:23:21.573Z,96621.06
2022-11-20T09:26:03.546Z,96636.31
2022-11-20T09:28:35.013Z,96627.19
2022-11-20T09:31:14.157Z,96631.78
2022-11-20T09:33:47.426Z,96628.91
2022-11-20T09:36:15.479Z,96634.94
2022-11-20T09:38:46.410Z,96620.59
2022-11-20T09:42:08.900Z,96636.81
2022-11-20T09:44:47.770Z,96632.66
2022-11-20T09:47:49.250Z,96644.41
2022-11-20T09:51:05.616Z,96636.72
2022-11-20T09:53:39.903Z,96645.25
2022-11-20T09:56:32.142Z,96633.50
2022-11-20T09:59:09.570Z,96639.38
2022-11-20T10:01:45.206Z,96632.50
2022-11-20T10:04:24.564Z,96627.88
2022-11-20T10:07:31.525Z,96633.25
2022-11-20T10:10:06.723Z,96643.53
2022-11-20T10:13:03.847Z,96649.00
2022-11-20T10:16:06.648Z,96644.13
2022-11-20T10:19:02.833Z,96647.84
2022-11-20T10:21:57.202Z,96650.97
2022-11-20T10:25:08.330Z,96655.41
2022-11-20T10:28:20.078Z,96644.50
2022-11-20T10:31:04.363Z,96637.66
2022-11-20T10:34:04.916Z,96632.31
2022-11-20T10:37:00.544Z,96627.22
2022-11-20T10:39:55.185Z,96626.16
2022-11-20T10:43:07.667Z,96611.97
2022-11-20T10:46:28.161Z,96604.72
2022-11-20T10:48:56.292Z,96597.09
2022-11-20T10:51:46.699Z,96597.81
2022-11-20T10:54:37.941Z,96593.28
2022-11-20T10:57:46.292Z,96586.22
2022-11-20T11:00:19.090Z,96591.72
2022-11-20T11:03:06.570Z,96586.00
2022-11-20T11:06:06.801Z,96586.38
2022-11-20T11:08:47.370Z,96587.81
2022-11-20T11:11:43.993Z,96579.66
2022-11-20T11:14:18.113Z,96583.91
2022-11-20T11:17:22.926Z,96592.59
2022-11-20T11:20:31.257Z,96603.28
2022-11-20T11:23:05.298Z,96602.00
2022-11-20T11:25:37.820Z,96598.41
2022-11-20T11:28:27.853Z,96601.38
2022-11-20T11:33:40.566Z,96605.97
2022-11-20T11:36:23.132Z,96607.06
2022-11-20T11:38:55.261Z,96599.03
2022-11-20T11:41:45.860Z,96597.50
2022-11-20T11:45:06.356Z,96598.66
2022-11-20T11:47:57.232Z,96579.75
2022-11-20T11:50:32.520Z,96591.84
2022-11-20T11:53:22.959Z,96587.13
2022-11-20T11:56:23.095Z,96598.94
2022-11-20T11:59:02.924Z,96585.97
2022-11-20T12:01:50.113Z,96596.19
2022-11-20T12:04:44.485Z,96599.94
2022-11-20T12:07:58.881Z,96587.31
2022-11-20T12:11:01.281Z,96586.81
2022-11-20T12:14:02.771Z,96575.53
2022-11-20T12:16:42.818Z,96582.31
2022-11-20T12:19:17.053Z,96580.00
2022-11-20T12:22:23.394Z,96571.16
2022-11-20T12:25:04.456Z,96572.09
2022-11-20T12:28:02.731Z,96567.16
2022-11-20T12:30:34.765Z,96570.25
2022-11-20T12:33:59.870Z,96575.69
2022-11-20T12:36:41.206Z,96575.09
2022-11-20T12:39:41.944Z,96577.06
2022-11-20T12:42:55.508Z,96579.44
2022-11-20T12:45:37.604Z,96587.47
2022-11-20T12:48:46.022Z,96574.00
2022-11-20T12:51:51.505Z,96594.50
2022-11-20T12:55:35.574Z,96580.75
2022-11-20T12:58:28.973Z,96596.66
2022-11-20T13:01:42.019Z,96602.91
2022-11-20T13:05:03.760Z,96591.16
2022-11-20T13:07:37.677Z,96591.41
2022-11-20T13:11:15.003Z,96572.28
2022-11-20T13:14:11.507Z,96565.47
2022-11-20T13:17:33.608Z,96562.13
2022-11-20T13:20:10.012Z,96554.25
2022-11-20T13:23:04.793Z,96558.81
2022-11-20T13:25:45.980Z,96554.50
2022-11-20T13:28:19.529Z,96552.91
2022-11-20T13:30:58.191Z,96535.31
2022-11-20T13:33:42.424Z,96531.84
2022-11-20T13:36:36.532Z,96540.16
2022-11-20T13:39:25.481Z,96536.66
2022-11-20T13:42:12.954Z,96536.44
2022-11-20T13:44:56.142Z,96536.84
2022-11-20T13:47:30.564Z,96531.94
2022-11-20T13:50:13.350Z,96542.31
2022-11-20T13:53:06.780Z,96547.25
2022-11-20T13:56:19.845Z,96545.69
2022-11-20T13:59:31.567Z,96533.59
2022-11-20T14:02:06.929Z,96542.16
2022-11-20T14:04:57.158Z,96549.47
2022-11-20T14:07:45.797Z,96553.19
2022-11-20T14:10:33.403Z,96553.22
2022-11-20T14:13:32.903Z,96566.69
2022-11-20T14:16:20.967Z,96571.28
2022-11-20T14:19:00.222Z,96575.06
2022-11-20T14:21:38.443Z,96589.28
2022-11-20T14:24:13.044Z,96575.56
2022-11-20T14:26:49.579Z,96570.97
2022-11-20T14:29:42.947Z,96567.41
2022-11-20T14:32:20.238Z,96576.41
2022-11-20T14:34:51.534Z,96576.75
2022-11-20T14:37:42.461Z,96567.75
2022-11-20T14:40:43.016Z,96588.56
2022-11-20T14:43:28.912Z,96584.91
2022-11-20T14:46:22.910Z,96599.13
2022-11-20T14:49:06.127Z,96592.84
2022-11-20T14:51:46.979Z,96591.97
2022-11-20T14:54:23.482Z,96594.81
2022-11-20T14:57:00.182Z,96605.00
2022-11-20T14:59:32.726Z,96605.91
2022-11-20T15:02:14.364Z,96606.69
2022-11-20T15:05:02.674Z,96612.78
2022-11-20T15:07:45.082Z,96611.47
2022-11-20T15:10:33.240Z,96614.56
2022-11-20T15:13:27.797Z,96630.38
2022-11-20T15:16:23.409Z,96636.66
2022-11-20T15:19:01.134Z,96631.41
2022-11-20T15:21:29.099Z,96625.84
2022-11-20T15:24:00.422Z,96634.50
2022-11-20T15:26:36.387Z,96630.91
2022-11-20T15:29:24.599Z,96644.75
2022-11-20T15:32:09.178Z,96635.88
2022-11-20T15:34:43.763Z,96640.50
2022-11-20T15:37:15.395Z,96644.63
2022-11-20T15:39:47.516Z,96639.03
2022-11-20T15:42:20.159Z,96655.59
2022-11-20T15:44:52.518Z,96661.38
2022-11-20T15:47:32.215Z,96665.25
2022-11-20T15:50:04.273Z,96668.31
2022-11-20T15:52:41.906Z,96662.63
2022-11-20T15:55:26.181Z,96658.03
2022-11-20T15:57:58.581Z,96663.97
2022-11-20T16:00:29.500Z,96670.59
2022-11-20T16:03:05.213Z,96676.44
2022-11-20T16:05:35.652Z,96670.41
2022-11-20T16:08:07.185Z,96685.97
2022-11-20T16:10:44.886Z,96686.09
2022-11-20T16:13:38.552Z,96685.31
2022-11-20T16:16:17.227Z,96680.81
2022-11-20T16:18:46.562Z,96696.09
2022-11-20T16:21:18.041Z,96690.47
2022-11-20T16:23:50.015Z,96693.78
2022-11-20T16:26:20.046Z,96695.13
2022-11-20T16:28:55.866Z,96695.81
2022-11-20T16:31:25.659Z,96702.31
2022-11-20T16:34:11.540Z,96697.09
2022-11-20T16:36:49.019Z,96699.47
2022-11-20T16:39:24.606Z,96696.91
2022-11-20T16:41:54.391Z,96697.94
2022-11-20T16:44:23.385Z,96694.84
2022-11-20T16:46:55.073Z,96691.81
2022-11-20T16:49:24.237Z,96694.81
2022-11-20T16:51:57.004Z,96703.22
2022-11-20T16:54:31.039Z,96707.03
2022-11-20T16:57:02.144Z,96711.00
2022-11-20T16:59:35.115Z,96706.56
2022-11-20T17:02:06.413Z,96709.81
2022-11-20T17:04:44.300Z,96714.50
2022-11-20T17:07:20.400Z,96715.88
2022-11-20T17:09:51.948Z,96708.47
2022-11-20T17:12:26.284Z,96716.81
2022-11-20T17:14:56.780Z,96709.41
2022-11-20T17:17:25.054Z,96726.34
2022-11-20T17:19:56.475Z,96735.47
2022-11-20T17:22:28.094Z,96724.72
2022-11-20T17:25:02.145Z,96745.81
2022-11-20T17:27:31.510Z,96751.25
2022-11-20T17:30:01.020Z,96748.56
2022-11-20T17:32:31.750Z,96752.03
2022-11-20T17:35:06.524Z,96759.06
2022-11-20T17:37:41.536Z,96759.00
2022-11-20T17:40:12.866Z,96762.72
2022-11-20T17:42:46.365Z,96748.75
2022-11-20T17:45:24.801Z,96743.66
2022-11-20T17:47:57.656Z,96755.97
2022-11-20T17:50:40.433Z,96741.88
2022-11-20T17:53:07.957Z,96747.19
2022-11-20T17:55:56.074Z,96750.25
2022-11-20T17:58:31.070Z,96753.47
2022-11-20T18:01:09.527Z,96754.56
2022-11-20T18:03:37.287Z,96761.47
2022-11-20T18:06:17.919Z,96762.63
2022-11-20T18:08:51.268Z,96767.75
2022-11-20T18:11:35.295Z,96781.16
2022-11-20T18:14:35.268Z,96770.94
2022-11-20T18:17:19.411Z,96773.03
2022-11-20T18:20:21.637Z,96777.75
2022-11-20T18:22:45.968Z,96780.34
2022-11-20T18:25:14.329Z,96787.34
2022-11-20T18:27:48.206Z,96793.97
2022-11-20T18:30:17.143Z,96798.84
2022-11-20T18:32:55.884Z,96802.34
2022-11-20T18:35:28.130Z,96800.16
2022-11-20T18:38:00.309Z,96811.44
2022-11-20T18:40:38.487Z,96808.44
2022-11-20T18:43:30.767Z,96809.81
2022-11-20T18:46:09.119Z,96823.50
2022-11-20T18:48:36.680Z,96819.28
2022-11-20T18:51:12.575Z,96813.53
2022-11-20T18:53:47.365Z,96824.00
2022-11-20T18:56:19.725Z,96828.72
2022-11-20T18:58:47.585Z,96836.81
2022-11-20T19:01:14.918Z,96838.91
2022-11-20T19:03:47.543Z,96824.75
2022-11-20T19:06:18.394Z,96849.59
2022-11-20T19:08:46.267Z,96847.84
2022-11-20T19:11:14.105Z,96847.09
2022-11-20T19:13:47.366Z,96851.50
2022-11-20T19:16:28.413Z,96855.66
2022-11-20T19:19:03.239Z,96847.41
2022-11-20T19:21:41.911Z,96851.75
2022-11-20T19:24:15.958Z,96851.16
2022-11-20T19:26:53.050Z,96856.41
2022-11-20T19:29:23.642Z,96854.94
2022-11-20T19:31:53.487Z,96855.81
2022-11-20T19:34:26.202Z,96856.47
2022-11-20T19:37:01.205Z,96862.97
2022-11-20T19:39:34.636Z,96857.31
2022-11-20T19:42:03.302Z,96854.59
2022-11-20T19:44:34.572Z,96857.38
2022-11-20T19:47:09.070Z,96859.34
2022-11-20T19:49:41.810Z,96871.84
2022-11-20T19:52:19.994Z,96871.78
2022-11-20T19:54:56.926Z,96874.66
2022-11-20T19:57:39.205Z,96871.88
2022-11-20T20:00:27.967Z,96879.06
2022-11-20T20:03:04.226Z,96885.13
2022-11-20T20:05:31.624Z,96889.88
2022-11-20T20:08:01.858Z,96897.06
2022-11-20T20:10:29.325Z,96904.38
2022-11-20T20:13:01.758Z,96911.44
2022-11-20T20:15:32.336Z,96914.00
2022-11-20T20:18:09.016Z,96910.03
2022-11-20T20:20:47.981Z,96916.13
2022-11-20T20:23:15.616Z,96920.56
2022-11-20T20:25:53.954Z,96921.50
2022-11-20T20:28:24.846Z,96919.03
2022-11-20T20:30:56.563Z,96912.41
2022-11-20T20:33:35.967Z,96902.84
2022-11-20T20:36:05.204Z,96917.28
2022-11-20T20:38:35.934Z,96908.81
2022-11-20T20:41:07.912Z,96916.72
2022-11-20T20:44:07.181Z,96915.41
2022-11-20T20:46:38.266Z,96909.78
2022-11-20T20:49:07.854Z,96918.47
2022-11-20T20:51:41.211Z,96929.91
2022-11-20T20:54:13.907Z,96937.44
2022-11-20T20:56:42.214Z,96952.69
2022-11-20T20:59:09.873Z,96938.09
2022-11-20T21:01:41.430Z,96930.56
2022-11-20T21:04:17.329Z,96936.31
2022-11-20T21:06:49.252Z,96928.56
2022-11-20T21:09:21.586Z,96935.13
2022-11-20T21:11:57.401Z,96938.06
2022-11-20T21:14:29.121Z,96933.28
2022-11-20T21:17:00.853Z,96937.13
2022-11-20T21:19:28.698Z,96943.84
2022-11-20T21:22:08.083Z,96938.56
2022-11-20T21:24:37.847Z,96936.78
2022-11-20T21:27:14.901Z,96940.88
2022-11-20T21:29:44.239Z,96932.09
2022-11-20T21:32:11.447Z,96928.09
2022-11-20T21:34:43.121Z,96930.19
2022-11-20T21:37:13.972Z,96928.22
2022-11-20T21:39:53.829Z,96921.75
2022-11-20T21:42:22.027Z,96919.59
2022-11-20T21:44:49.363Z,96920.81
2022-11-20T21:47:28.442Z,96922.44
2022-11-20T21:49:57.541Z,96919.75
2022-11-20T21:52:25.471Z,96918.94
2022-11-20T21:55:01.881Z,96917.97
2022-11-20T21:57:29.043Z,96910.00
2022-11-20T22:00:03.961Z,96904.69
2022-11-20T22:02:34.341Z,96905.59
2022-11-20T22:05:06.827Z,96902.84
2022-11-20T22:07:37.444Z,96901.09
2022-11-20T22:10:18.818Z,96891.72
2022-11-20T22:12:48.380Z,96883.81
2022-11-20T22:15:33.292Z,96885.34
2022-11-20T22:18:14.561Z,96877.59
2022-11-20T22:20:43.195Z,96872.19
2022-11-20T22:23:13.523Z,96875.84
2022-11-20T22:25:46.738Z,96871.53
2022-11-20T22:28:20.750Z,96874.44
2022-11-20T22:30:55.963Z,96882.88
2022-11-20T22:33:30.920Z,96885.34
2022-11-20T22:36:14.719Z,96888.97
2022-11-20T22:38:45.275Z,96889.19
2022-11-20T22:41:20.184Z,96872.41
2022-11-20T22:43:55.561Z,96877.69
2022-11-20T22:46:31.672Z,96879.19
2022-11-20T22:49:02.921Z,96874.03
2022-11-20T22:51:38.400Z,96887.25
2022-11-20T22:54:12.383Z,96883.94
2022-11-20T22:56:42.949Z,96879.19
2022-11-20T22:59:14.632Z,96873.59
2022-11-20T23:01:49.439Z,96878.31
2022-11-20T23:04:18.575Z,96876.88
2022-11-20T23:06:53.164Z,96882.53
2022-11-20T23:09:20.571Z,96874.19
2022-11-20T23:11:47.696Z,96879.97
2022-11-20T23:14:27.425Z,96887.84
2022-11-20T23:17:03.838Z,96879.00
2022-11-20T23:19:34.476Z,96872.56
2022-11-20T23:22:04.214Z,96880.44
2022-11-20T23:24:34.731Z,96882.19
2022-11-20T23:27:13.487Z,96889.81
2022-11-20T23:29:44.283Z,96885.56
2022-11-20T23:32:19.157Z,96894.03
2022-11-20T23:34:50.859Z,96900.97
2022-11-20T23:37:22.131Z,96900.00
2022-11-20T23:39:52.441Z,96907.28
2022-11-20T23:42:21.973Z,96905.34
2022-11-20T23:44:52.764Z,96897.78
2022-11-20T23:47:22.208Z,96896.94
2022-11-20T23:49:53.865Z,96895.94
2022-11-20T23:52:26.727Z,96900.84
2022-11-20T23:55:00.429Z,96905.06
2022-11-20T23:57:30.845Z,96910.19
